sensor_id;sensor_type;location;lat;lon;timestamp;P1;durP1;ratioP1;P2;durP2;ratioP2
5022;SDS011;2530;47.990;7.866;2023-05-10T00:01:29;1.00;;;0.70;;
5022;SDS011;2530;47.990;7.866;2023-05-10T00:03:54;0.70;;;0.70;;
5022;SDS011;2530;47.990;7.866;2023-05-10T00:06:20;1.00;;;0.90;;
5022;SDS011;2530;47.990;7.866;2023-05-10T00:08:45;1.20;;;0.60;;
5022;SDS011;2530;47.990;7.866;2023-05-10T00:11:11;0.90;;;0.70;;
5022;SDS011;2530;47.990;7.866;2023-05-10T00:13:36;0.60;;;0.50;;
5022;SDS011;2530;47.990;7.866;2023-05-10T00:16:02;1.70;;;0.70;;
5022;SDS011;2530;47.990;7.866;2023-05-10T00:18:28;1.15;;;0.90;;
5022;SDS011;2530;47.990;7.866;2023-05-10T00:20:53;1.40;;;0.70;;
5022;SDS011;2530;47.990;7.866;2023-05-10T00:23:19;1.30;;;0.70;;
5022;SDS011;2530;47.990;7.866;2023-05-10T00:25:44;0.88;;;0.68;;
5022;SDS011;2530;47.990;7.866;2023-05-10T00:28:10;1.30;;;0.90;;
5022;SDS011;2530;47.990;7.866;2023-05-10T00:30:35;2.10;;;0.80;;
5022;SDS011;2530;47.990;7.866;2023-05-10T00:33:01;0.70;;;0.50;;
5022;SDS011;2530;47.990;7.866;2023-05-10T00:35:26;0.70;;;0.60;;
5022;SDS011;2530;47.990;7.866;2023-05-10T00:37:52;0.80;;;0.77;;
5022;SDS011;2530;47.990;7.866;2023-05-10T00:40:18;1.00;;;0.70;;
5022;SDS011;2530;47.990;7.866;2023-05-10T00:42:43;0.90;;;0.70;;
5022;SDS011;2530;47.990;7.866;2023-05-10T00:45:09;2.30;;;0.70;;
5022;SDS011;2530;47.990;7.866;2023-05-10T00:47:34;1.20;;;0.90;;
5022;SDS011;2530;47.990;7.866;2023-05-10T00:50:00;0.60;;;0.60;;
5022;SDS011;2530;47.990;7.866;2023-05-10T00:52:27;0.77;;;0.70;;
5022;SDS011;2530;47.990;7.866;2023-05-10T00:54:53;1.20;;;0.80;;
5022;SDS011;2530;47.990;7.866;2023-05-10T00:57:19;0.80;;;0.80;;
5022;SDS011;2530;47.990;7.866;2023-05-10T00:59:45;0.90;;;0.70;;
5022;SDS011;2530;47.990;7.866;2023-05-10T01:02:11;2.20;;;0.70;;
5022;SDS011;2530;47.990;7.866;2023-05-10T01:04:38;0.90;;;0.70;;
5022;SDS011;2530;47.990;7.866;2023-05-10T01:07:04;1.20;;;0.80;;
5022;SDS011;2530;47.990;7.866;2023-05-10T01:09:30;0.90;;;0.80;;
5022;SDS011;2530;47.990;7.866;2023-05-10T01:11:56;1.00;;;0.80;;
5022;SDS011;2530;47.990;7.866;2023-05-10T01:14:21;1.17;;;0.90;;
5022;SDS011;2530;47.990;7.866;2023-05-10T01:16:48;1.23;;;0.80;;
5022;SDS011;2530;47.990;7.866;2023-05-10T01:19:25;1.27;;;0.90;;
5022;SDS011;2530;47.990;7.866;2023-05-10T01:24:38;1.30;;;1.10;;
5022;SDS011;2530;47.990;7.866;2023-05-10T01:27:27;1.60;;;0.80;;
5022;SDS011;2530;47.990;7.866;2023-05-10T01:33:11;1.20;;;1.10;;
5022;SDS011;2530;47.990;7.866;2023-05-10T01:41:01;1.20;;;1.10;;
5022;SDS011;2530;47.990;7.866;2023-05-10T01:43:55;1.55;;;1.45;;
5022;SDS011;2530;47.990;7.866;2023-05-10T01:46:31;1.40;;;1.30;;
5022;SDS011;2530;47.990;7.866;2023-05-10T01:49:00;1.50;;;1.40;;
5022;SDS011;2530;47.990;7.866;2023-05-10T01:51:35;1.55;;;1.17;;
5022;SDS011;2530;47.990;7.866;2023-05-10T01:54:09;1.70;;;1.60;;
5022;SDS011;2530;47.990;7.866;2023-05-10T01:56:37;1.60;;;1.40;;
5022;SDS011;2530;47.990;7.866;2023-05-10T01:59:06;1.40;;;1.30;;
5022;SDS011;2530;47.990;7.866;2023-05-10T02:01:40;2.00;;;1.30;;
5022;SDS011;2530;47.990;7.866;2023-05-10T02:04:07;1.80;;;1.60;;
5022;SDS011;2530;47.990;7.866;2023-05-10T02:06:34;1.30;;;1.20;;
5022;SDS011;2530;47.990;7.866;2023-05-10T02:09:01;1.40;;;1.30;;
5022;SDS011;2530;47.990;7.866;2023-05-10T02:11:28;1.30;;;1.20;;
5022;SDS011;2530;47.990;7.866;2023-05-10T02:13:54;1.40;;;1.30;;
5022;SDS011;2530;47.990;7.866;2023-05-10T02:16:21;1.20;;;1.10;;
5022;SDS011;2530;47.990;7.866;2023-05-10T02:18:50;1.20;;;1.10;;
5022;SDS011;2530;47.990;7.866;2023-05-10T02:21:17;2.33;;;1.23;;
5022;SDS011;2530;47.990;7.866;2023-05-10T02:23:45;2.60;;;1.20;;
5022;SDS011;2530;47.990;7.866;2023-05-10T02:26:13;1.50;;;1.40;;
5022;SDS011;2530;47.990;7.866;2023-05-10T02:28:40;1.60;;;1.10;;
5022;SDS011;2530;47.990;7.866;2023-05-10T02:31:07;1.10;;;1.00;;
5022;SDS011;2530;47.990;7.866;2023-05-10T02:33:35;1.52;;;1.15;;
5022;SDS011;2530;47.990;7.866;2023-05-10T02:36:03;2.50;;;1.20;;
5022;SDS011;2530;47.990;7.866;2023-05-10T02:38:30;1.17;;;1.00;;
5022;SDS011;2530;47.990;7.866;2023-05-10T02:40:58;1.20;;;1.05;;
5022;SDS011;2530;47.990;7.866;2023-05-10T02:43:25;3.10;;;1.10;;
5022;SDS011;2530;47.990;7.866;2023-05-10T02:45:53;2.65;;;0.90;;
5022;SDS011;2530;47.990;7.866;2023-05-10T02:48:19;1.40;;;1.10;;
5022;SDS011;2530;47.990;7.866;2023-05-10T02:50:44;0.98;;;0.88;;
5022;SDS011;2530;47.990;7.866;2023-05-10T02:53:15;2.60;;;0.90;;
5022;SDS011;2530;47.990;7.866;2023-05-10T02:55:46;1.13;;;0.90;;
5022;SDS011;2530;47.990;7.866;2023-05-10T02:58:15;1.05;;;0.77;;
5022;SDS011;2530;47.990;7.866;2023-05-10T03:00:41;1.20;;;0.73;;
5022;SDS011;2530;47.990;7.866;2023-05-10T03:03:06;2.28;;;0.70;;
5022;SDS011;2530;47.990;7.866;2023-05-10T03:05:32;0.90;;;0.70;;
5022;SDS011;2530;47.990;7.866;2023-05-10T03:07:58;1.10;;;0.90;;
5022;SDS011;2530;47.990;7.866;2023-05-10T03:10:27;0.80;;;0.80;;
5022;SDS011;2530;47.990;7.866;2023-05-10T03:12:56;1.00;;;0.90;;
5022;SDS011;2530;47.990;7.866;2023-05-10T03:15:42;1.00;;;0.90;;
5022;SDS011;2530;47.990;7.866;2023-05-10T03:18:33;0.80;;;0.80;;
5022;SDS011;2530;47.990;7.866;2023-05-10T03:21:08;1.02;;;0.93;;
5022;SDS011;2530;47.990;7.866;2023-05-10T03:23:44;2.10;;;1.10;;
5022;SDS011;2530;47.990;7.866;2023-05-10T03:26:17;2.00;;;1.10;;
5022;SDS011;2530;47.990;7.866;2023-05-10T03:28:48;1.63;;;1.13;;
5022;SDS011;2530;47.990;7.866;2023-05-10T03:31:15;1.30;;;1.10;;
5022;SDS011;2530;47.990;7.866;2023-05-10T03:33:48;2.35;;;1.33;;
5022;SDS011;2530;47.990;7.866;2023-05-10T03:36:14;1.33;;;1.23;;
5022;SDS011;2530;47.990;7.866;2023-05-10T03:38:40;1.20;;;1.10;;
5022;SDS011;2530;47.990;7.866;2023-05-10T03:41:05;1.40;;;1.30;;
5022;SDS011;2530;47.990;7.866;2023-05-10T03:43:31;1.25;;;1.02;;
5022;SDS011;2530;47.990;7.866;2023-05-10T03:45:56;2.17;;;1.30;;
5022;SDS011;2530;47.990;7.866;2023-05-10T03:48:22;1.20;;;1.10;;
5022;SDS011;2530;47.990;7.866;2023-05-10T03:50:47;1.50;;;1.00;;
5022;SDS011;2530;47.990;7.866;2023-05-10T03:53:14;1.73;;;1.35;;
5022;SDS011;2530;47.990;7.866;2023-05-10T03:55:40;1.60;;;1.27;;
5022;SDS011;2530;47.990;7.866;2023-05-10T03:58:05;1.70;;;1.20;;
5022;SDS011;2530;47.990;7.866;2023-05-10T04:00:31;1.45;;;1.20;;
5022;SDS011;2530;47.990;7.866;2023-05-10T04:02:57;1.50;;;1.00;;
5022;SDS011;2530;47.990;7.866;2023-05-10T04:05:23;1.20;;;1.10;;
5022;SDS011;2530;47.990;7.866;2023-05-10T04:07:49;1.30;;;1.20;;
5022;SDS011;2530;47.990;7.866;2023-05-10T04:10:15;2.20;;;1.30;;
5022;SDS011;2530;47.990;7.866;2023-05-10T04:12:41;0.90;;;0.90;;
5022;SDS011;2530;47.990;7.866;2023-05-10T04:15:07;1.40;;;0.80;;
5022;SDS011;2530;47.990;7.866;2023-05-10T04:17:34;1.10;;;0.98;;
5022;SDS011;2530;47.990;7.866;2023-05-10T04:20:00;1.10;;;1.00;;
5022;SDS011;2530;47.990;7.866;2023-05-10T04:22:25;2.63;;;1.20;;
5022;SDS011;2530;47.990;7.866;2023-05-10T04:24:52;1.90;;;1.20;;
5022;SDS011;2530;47.990;7.866;2023-05-10T04:27:18;1.50;;;1.40;;
5022;SDS011;2530;47.990;7.866;2023-05-10T04:29:43;3.60;;;1.20;;
5022;SDS011;2530;47.990;7.866;2023-05-10T04:32:09;1.97;;;1.40;;
5022;SDS011;2530;47.990;7.866;2023-05-10T04:34:35;1.73;;;1.30;;
5022;SDS011;2530;47.990;7.866;2023-05-10T04:37:02;1.45;;;1.35;;
5022;SDS011;2530;47.990;7.866;2023-05-10T04:39:28;1.70;;;1.03;;
5022;SDS011;2530;47.990;7.866;2023-05-10T04:41:54;1.30;;;1.10;;
5022;SDS011;2530;47.990;7.866;2023-05-10T04:44:19;1.40;;;1.30;;
5022;SDS011;2530;47.990;7.866;2023-05-10T04:46:45;1.30;;;1.00;;
5022;SDS011;2530;47.990;7.866;2023-05-10T04:49:11;1.33;;;1.17;;
5022;SDS011;2530;47.990;7.866;2023-05-10T04:51:36;1.30;;;1.00;;
5022;SDS011;2530;47.990;7.866;2023-05-10T04:54:02;1.70;;;1.10;;
5022;SDS011;2530;47.990;7.866;2023-05-10T04:56:27;1.20;;;1.10;;
5022;SDS011;2530;47.990;7.866;2023-05-10T04:58:53;1.33;;;1.05;;
5022;SDS011;2530;47.990;7.866;2023-05-10T05:01:18;1.50;;;1.20;;
5022;SDS011;2530;47.990;7.866;2023-05-10T05:03:44;1.30;;;1.20;;
5022;SDS011;2530;47.990;7.866;2023-05-10T05:06:09;1.35;;;1.25;;
5022;SDS011;2530;47.990;7.866;2023-05-10T05:08:35;1.83;;;1.00;;
5022;SDS011;2530;47.990;7.866;2023-05-10T05:11:00;1.23;;;1.10;;
5022;SDS011;2530;47.990;7.866;2023-05-10T05:13:26;1.10;;;1.00;;
5022;SDS011;2530;47.990;7.866;2023-05-10T05:15:51;2.70;;;1.10;;
5022;SDS011;2530;47.990;7.866;2023-05-10T05:18:18;1.30;;;1.10;;
5022;SDS011;2530;47.990;7.866;2023-05-10T05:20:43;1.53;;;0.80;;
5022;SDS011;2530;47.990;7.866;2023-05-10T05:23:09;1.95;;;0.98;;
5022;SDS011;2530;47.990;7.866;2023-05-10T05:25:34;1.20;;;1.10;;
5022;SDS011;2530;47.990;7.866;2023-05-10T05:28:00;1.93;;;1.00;;
5022;SDS011;2530;47.990;7.866;2023-05-10T05:30:26;3.40;;;1.40;;
5022;SDS011;2530;47.990;7.866;2023-05-10T05:32:52;1.70;;;1.30;;
5022;SDS011;2530;47.990;7.866;2023-05-10T05:35:17;1.50;;;1.33;;
5022;SDS011;2530;47.990;7.866;2023-05-10T05:37:46;2.38;;;1.30;;
5022;SDS011;2530;47.990;7.866;2023-05-10T05:40:13;1.37;;;1.27;;
5022;SDS011;2530;47.990;7.866;2023-05-10T05:42:39;2.30;;;1.15;;
5022;SDS011;2530;47.990;7.866;2023-05-10T05:45:04;1.20;;;1.10;;
5022;SDS011;2530;47.990;7.866;2023-05-10T05:47:30;2.00;;;1.00;;
5022;SDS011;2530;47.990;7.866;2023-05-10T05:49:56;1.10;;;1.00;;
5022;SDS011;2530;47.990;7.866;2023-05-10T05:52:21;1.05;;;0.95;;
5022;SDS011;2530;47.990;7.866;2023-05-10T05:54:47;1.20;;;1.10;;
5022;SDS011;2530;47.990;7.866;2023-05-10T05:57:12;1.33;;;1.10;;
5022;SDS011;2530;47.990;7.866;2023-05-10T05:59:38;1.27;;;1.10;;
5022;SDS011;2530;47.990;7.866;2023-05-10T06:02:08;1.10;;;1.10;;
5022;SDS011;2530;47.990;7.866;2023-05-10T06:04:34;3.70;;;1.10;;
5022;SDS011;2530;47.990;7.866;2023-05-10T06:07:00;1.20;;;1.10;;
5022;SDS011;2530;47.990;7.866;2023-05-10T06:09:25;2.17;;;1.20;;
5022;SDS011;2530;47.990;7.866;2023-05-10T06:11:51;1.10;;;1.00;;
5022;SDS011;2530;47.990;7.866;2023-05-10T06:14:16;1.80;;;1.40;;
5022;SDS011;2530;47.990;7.866;2023-05-10T06:16:42;1.00;;;0.90;;
5022;SDS011;2530;47.990;7.866;2023-05-10T06:19:07;2.20;;;1.40;;
5022;SDS011;2530;47.990;7.866;2023-05-10T06:21:33;2.30;;;1.20;;
5022;SDS011;2530;47.990;7.866;2023-05-10T06:23:59;1.50;;;1.20;;
5022;SDS011;2530;47.990;7.866;2023-05-10T06:26:24;1.77;;;1.38;;
5022;SDS011;2530;47.990;7.866;2023-05-10T06:28:50;2.20;;;1.40;;
5022;SDS011;2530;47.990;7.866;2023-05-10T06:31:15;3.30;;;1.40;;
5022;SDS011;2530;47.990;7.866;2023-05-10T06:33:41;2.33;;;1.37;;
5022;SDS011;2530;47.990;7.866;2023-05-10T06:36:07;2.60;;;1.20;;
5022;SDS011;2530;47.990;7.866;2023-05-10T06:38:32;1.80;;;1.30;;
5022;SDS011;2530;47.990;7.866;2023-05-10T06:40:58;2.30;;;1.48;;
5022;SDS011;2530;47.990;7.866;2023-05-10T06:43:23;2.00;;;1.20;;
5022;SDS011;2530;47.990;7.866;2023-05-10T06:45:49;1.85;;;1.20;;
5022;SDS011;2530;47.990;7.866;2023-05-10T06:48:15;2.10;;;1.13;;
5022;SDS011;2530;47.990;7.866;2023-05-10T06:50:40;3.73;;;1.23;;
5022;SDS011;2530;47.990;7.866;2023-05-10T06:53:06;2.90;;;1.00;;
5022;SDS011;2530;47.990;7.866;2023-05-10T06:55:32;3.00;;;1.50;;
5022;SDS011;2530;47.990;7.866;2023-05-10T06:57:57;2.60;;;1.30;;
5022;SDS011;2530;47.990;7.866;2023-05-10T07:00:23;1.30;;;1.20;;
5022;SDS011;2530;47.990;7.866;2023-05-10T07:02:49;2.05;;;1.40;;
5022;SDS011;2530;47.990;7.866;2023-05-10T07:05:14;1.73;;;1.63;;
5022;SDS011;2530;47.990;7.866;2023-05-10T07:07:40;3.00;;;1.30;;
5022;SDS011;2530;47.990;7.866;2023-05-10T07:10:06;2.00;;;1.20;;
5022;SDS011;2530;47.990;7.866;2023-05-10T07:12:32;4.65;;;1.20;;
5022;SDS011;2530;47.990;7.866;2023-05-10T07:14:58;3.27;;;1.33;;
5022;SDS011;2530;47.990;7.866;2023-05-10T07:17:23;1.92;;;1.20;;
5022;SDS011;2530;47.990;7.866;2023-05-10T07:19:49;1.50;;;1.40;;
5022;SDS011;2530;47.990;7.866;2023-05-10T07:22:15;2.33;;;1.25;;
5022;SDS011;2530;47.990;7.866;2023-05-10T07:24:41;2.13;;;1.20;;
5022;SDS011;2530;47.990;7.866;2023-05-10T07:27:07;2.30;;;1.30;;
5022;SDS011;2530;47.990;7.866;2023-05-10T07:29:32;2.40;;;1.70;;
5022;SDS011;2530;47.990;7.866;2023-05-10T07:31:58;2.50;;;1.35;;
5022;SDS011;2530;47.990;7.866;2023-05-10T07:34:23;2.83;;;1.43;;
5022;SDS011;2530;47.990;7.866;2023-05-10T07:36:49;3.33;;;1.50;;
5022;SDS011;2530;47.990;7.866;2023-05-10T07:39:15;1.80;;;1.20;;
5022;SDS011;2530;47.990;7.866;2023-05-10T07:41:41;1.38;;;1.20;;
5022;SDS011;2530;47.990;7.866;2023-05-10T07:44:07;3.10;;;1.30;;
5022;SDS011;2530;47.990;7.866;2023-05-10T07:46:32;1.40;;;1.20;;
5022;SDS011;2530;47.990;7.866;2023-05-10T07:48:58;3.00;;;1.50;;
5022;SDS011;2530;47.990;7.866;2023-05-10T07:51:23;1.73;;;1.33;;
5022;SDS011;2530;47.990;7.866;2023-05-10T07:53:49;1.50;;;1.27;;
5022;SDS011;2530;47.990;7.866;2023-05-10T07:56:25;3.78;;;1.65;;
5022;SDS011;2530;47.990;7.866;2023-05-10T07:58:54;1.40;;;1.30;;
5022;SDS011;2530;47.990;7.866;2023-05-10T08:01:20;3.38;;;1.30;;
5022;SDS011;2530;47.990;7.866;2023-05-10T08:03:46;2.20;;;1.20;;
5022;SDS011;2530;47.990;7.866;2023-05-10T08:06:13;4.70;;;1.20;;
5022;SDS011;2530;47.990;7.866;2023-05-10T08:08:40;2.20;;;1.20;;
5022;SDS011;2530;47.990;7.866;2023-05-10T08:11:06;1.85;;;1.30;;
5022;SDS011;2530;47.990;7.866;2023-05-10T08:13:31;1.50;;;1.30;;
5022;SDS011;2530;47.990;7.866;2023-05-10T08:15:57;2.13;;;1.27;;
5022;SDS011;2530;47.990;7.866;2023-05-10T08:18:22;2.10;;;1.10;;
5022;SDS011;2530;47.990;7.866;2023-05-10T08:20:48;2.83;;;1.40;;
5022;SDS011;2530;47.990;7.866;2023-05-10T08:23:13;1.90;;;1.37;;
5022;SDS011;2530;47.990;7.866;2023-05-10T08:25:39;2.10;;;1.33;;
5022;SDS011;2530;47.990;7.866;2023-05-10T08:28:04;1.60;;;1.40;;
5022;SDS011;2530;47.990;7.866;2023-05-10T08:30:30;2.30;;;1.10;;
5022;SDS011;2530;47.990;7.866;2023-05-10T08:32:56;1.80;;;1.20;;
5022;SDS011;2530;47.990;7.866;2023-05-10T08:35:21;2.50;;;1.20;;
5022;SDS011;2530;47.990;7.866;2023-05-10T08:37:47;1.70;;;1.30;;
5022;SDS011;2530;47.990;7.866;2023-05-10T08:40:12;1.20;;;1.10;;
5022;SDS011;2530;47.990;7.866;2023-05-10T08:42:39;2.00;;;1.20;;
5022;SDS011;2530;47.990;7.866;2023-05-10T08:45:08;2.60;;;1.40;;
5022;SDS011;2530;47.990;7.866;2023-05-10T08:47:35;1.77;;;1.20;;
5022;SDS011;2530;47.990;7.866;2023-05-10T08:50:02;1.65;;;1.15;;
5022;SDS011;2530;47.990;7.866;2023-05-10T08:52:28;1.35;;;0.90;;
5022;SDS011;2530;47.990;7.866;2023-05-10T08:54:55;2.38;;;1.10;;
5022;SDS011;2530;47.990;7.866;2023-05-10T08:57:21;2.80;;;1.40;;
5022;SDS011;2530;47.990;7.866;2023-05-10T08:59:47;1.58;;;1.15;;
5022;SDS011;2530;47.990;7.866;2023-05-10T09:02:13;2.53;;;1.37;;
5022;SDS011;2530;47.990;7.866;2023-05-10T09:04:39;1.70;;;1.00;;
5022;SDS011;2530;47.990;7.866;2023-05-10T09:07:04;2.72;;;1.30;;
5022;SDS011;2530;47.990;7.866;2023-05-10T09:09:31;3.20;;;1.30;;
5022;SDS011;2530;47.990;7.866;2023-05-10T09:11:57;2.20;;;1.00;;
5022;SDS011;2530;47.990;7.866;2023-05-10T09:14:23;1.90;;;1.10;;
5022;SDS011;2530;47.990;7.866;2023-05-10T09:16:49;1.55;;;0.90;;
5022;SDS011;2530;47.990;7.866;2023-05-10T09:19:15;4.10;;;1.20;;
5022;SDS011;2530;47.990;7.866;2023-05-10T09:21:40;2.00;;;0.95;;
5022;SDS011;2530;47.990;7.866;2023-05-10T09:24:07;2.00;;;1.30;;
5022;SDS011;2530;47.990;7.866;2023-05-10T09:26:33;1.02;;;0.80;;
5022;SDS011;2530;47.990;7.866;2023-05-10T09:29:00;2.63;;;1.20;;
5022;SDS011;2530;47.990;7.866;2023-05-10T09:34:15;5.60;;;1.60;;
5022;SDS011;2530;47.990;7.866;2023-05-10T09:36:52;2.00;;;0.93;;
5022;SDS011;2530;47.990;7.866;2023-05-10T09:39:32;2.63;;;1.10;;
5022;SDS011;2530;47.990;7.866;2023-05-10T09:41:58;1.63;;;1.13;;
5022;SDS011;2530;47.990;7.866;2023-05-10T09:44:26;3.20;;;1.10;;
5022;SDS011;2530;47.990;7.866;2023-05-10T09:46:51;2.20;;;1.10;;
5022;SDS011;2530;47.990;7.866;2023-05-10T09:49:17;1.60;;;1.00;;
5022;SDS011;2530;47.990;7.866;2023-05-10T09:51:44;4.53;;;1.00;;
5022;SDS011;2530;47.990;7.866;2023-05-10T09:54:11;3.00;;;0.90;;
5022;SDS011;2530;47.990;7.866;2023-05-10T09:56:38;2.20;;;1.00;;
5022;SDS011;2530;47.990;7.866;2023-05-10T09:59:06;5.38;;;1.00;;
5022;SDS011;2530;47.990;7.866;2023-05-10T10:01:33;0.75;;;0.60;;
5022;SDS011;2530;47.990;7.866;2023-05-10T10:03:59;1.30;;;0.70;;
5022;SDS011;2530;47.990;7.866;2023-05-10T10:06:37;0.73;;;0.60;;
5022;SDS011;2530;47.990;7.866;2023-05-10T10:09:04;2.13;;;0.80;;
5022;SDS011;2530;47.990;7.866;2023-05-10T10:11:31;1.85;;;0.70;;
5022;SDS011;2530;47.990;7.866;2023-05-10T10:13:57;2.00;;;0.80;;
5022;SDS011;2530;47.990;7.866;2023-05-10T10:16:23;1.40;;;0.80;;
5022;SDS011;2530;47.990;7.866;2023-05-10T10:18:50;1.60;;;0.80;;
5022;SDS011;2530;47.990;7.866;2023-05-10T10:21:15;1.00;;;0.60;;
5022;SDS011;2530;47.990;7.866;2023-05-10T10:23:42;1.33;;;0.75;;
5022;SDS011;2530;47.990;7.866;2023-05-10T10:26:08;0.90;;;0.70;;
5022;SDS011;2530;47.990;7.866;2023-05-10T10:31:27;1.80;;;0.70;;
5022;SDS011;2530;47.990;7.866;2023-05-10T10:34:06;2.10;;;0.90;;
5022;SDS011;2530;47.990;7.866;2023-05-10T10:36:39;1.10;;;0.80;;
5022;SDS011;2530;47.990;7.866;2023-05-10T10:39:10;3.80;;;1.40;;
5022;SDS011;2530;47.990;7.866;2023-05-10T10:41:37;1.60;;;0.80;;
5022;SDS011;2530;47.990;7.866;2023-05-10T10:47:05;2.80;;;1.00;;
5022;SDS011;2530;47.990;7.866;2023-05-10T10:52:41;4.55;;;0.90;;
5022;SDS011;2530;47.990;7.866;2023-05-10T10:57:50;3.10;;;1.00;;
5022;SDS011;2530;47.990;7.866;2023-05-10T11:00:32;3.80;;;0.90;;
5022;SDS011;2530;47.990;7.866;2023-05-10T11:05:37;1.13;;;0.80;;
5022;SDS011;2530;47.990;7.866;2023-05-10T11:08:10;1.70;;;0.90;;
5022;SDS011;2530;47.990;7.866;2023-05-10T11:11:14;1.30;;;0.93;;
5022;SDS011;2530;47.990;7.866;2023-05-10T11:13:43;2.45;;;0.70;;
5022;SDS011;2530;47.990;7.866;2023-05-10T11:16:15;1.40;;;0.70;;
5022;SDS011;2530;47.990;7.866;2023-05-10T11:21:23;1.63;;;0.75;;
5022;SDS011;2530;47.990;7.866;2023-05-10T11:23:53;1.40;;;0.70;;
5022;SDS011;2530;47.990;7.866;2023-05-10T11:26:23;2.90;;;0.85;;
5022;SDS011;2530;47.990;7.866;2023-05-10T11:28:59;2.20;;;0.70;;
5022;SDS011;2530;47.990;7.866;2023-05-10T11:31:27;2.55;;;0.90;;
5022;SDS011;2530;47.990;7.866;2023-05-10T11:33:56;1.80;;;0.90;;
5022;SDS011;2530;47.990;7.866;2023-05-10T11:36:24;2.13;;;0.90;;
5022;SDS011;2530;47.990;7.866;2023-05-10T11:38:51;3.00;;;0.90;;
5022;SDS011;2530;47.990;7.866;2023-05-10T11:41:17;3.60;;;1.10;;
5022;SDS011;2530;47.990;7.866;2023-05-10T11:43:46;3.58;;;1.10;;
5022;SDS011;2530;47.990;7.866;2023-05-10T11:46:15;1.50;;;0.80;;
5022;SDS011;2530;47.990;7.866;2023-05-10T11:48:42;0.85;;;0.80;;
5022;SDS011;2530;47.990;7.866;2023-05-10T11:51:08;2.30;;;1.00;;
5022;SDS011;2530;47.990;7.866;2023-05-10T11:53:35;2.40;;;0.90;;
5022;SDS011;2530;47.990;7.866;2023-05-10T11:58:31;2.35;;;0.70;;
5022;SDS011;2530;47.990;7.866;2023-05-10T12:00:57;2.47;;;1.15;;
5022;SDS011;2530;47.990;7.866;2023-05-10T12:03:27;2.03;;;1.00;;
5022;SDS011;2530;47.990;7.866;2023-05-10T12:05:53;2.20;;;1.10;;
5022;SDS011;2530;47.990;7.866;2023-05-10T12:08:20;4.60;;;0.80;;
5022;SDS011;2530;47.990;7.866;2023-05-10T12:10:50;3.95;;;1.52;;
5022;SDS011;2530;47.990;7.866;2023-05-10T12:13:17;2.30;;;1.10;;
5022;SDS011;2530;47.990;7.866;2023-05-10T12:15:45;1.45;;;0.80;;
5022;SDS011;2530;47.990;7.866;2023-05-10T12:18:11;1.02;;;0.52;;
5022;SDS011;2530;47.990;7.866;2023-05-10T12:20:38;2.05;;;0.70;;
5022;SDS011;2530;47.990;7.866;2023-05-10T12:23:05;1.60;;;0.40;;
5022;SDS011;2530;47.990;7.866;2023-05-10T12:25:31;1.33;;;0.70;;
5022;SDS011;2530;47.990;7.866;2023-05-10T12:27:59;3.10;;;1.20;;
5022;SDS011;2530;47.990;7.866;2023-05-10T12:30:27;2.00;;;0.70;;
5022;SDS011;2530;47.990;7.866;2023-05-10T12:32:54;0.70;;;0.50;;
5022;SDS011;2530;47.990;7.866;2023-05-10T12:35:25;2.97;;;0.60;;
5022;SDS011;2530;47.990;7.866;2023-05-10T12:37:51;1.05;;;0.80;;
5022;SDS011;2530;47.990;7.866;2023-05-10T12:40:16;2.80;;;0.80;;
5022;SDS011;2530;47.990;7.866;2023-05-10T12:42:42;2.40;;;0.70;;
5022;SDS011;2530;47.990;7.866;2023-05-10T12:45:09;2.47;;;0.90;;
5022;SDS011;2530;47.990;7.866;2023-05-10T12:47:35;1.40;;;0.60;;
5022;SDS011;2530;47.990;7.866;2023-05-10T12:50:01;2.42;;;0.95;;
5022;SDS011;2530;47.990;7.866;2023-05-10T12:52:28;2.07;;;0.80;;
5022;SDS011;2530;47.990;7.866;2023-05-10T12:54:53;1.00;;;0.80;;
5022;SDS011;2530;47.990;7.866;2023-05-10T12:57:22;1.10;;;0.50;;
5022;SDS011;2530;47.990;7.866;2023-05-10T12:59:48;1.02;;;0.73;;
5022;SDS011;2530;47.990;7.866;2023-05-10T13:02:15;1.00;;;0.60;;
5022;SDS011;2530;47.990;7.866;2023-05-10T13:04:42;0.90;;;0.80;;
5022;SDS011;2530;47.990;7.866;2023-05-10T13:07:28;2.40;;;0.60;;
5022;SDS011;2530;47.990;7.866;2023-05-10T13:09:53;2.80;;;0.60;;
5022;SDS011;2530;47.990;7.866;2023-05-10T13:12:19;0.83;;;0.70;;
5022;SDS011;2530;47.990;7.866;2023-05-10T13:14:44;1.50;;;0.50;;
5022;SDS011;2530;47.990;7.866;2023-05-10T13:17:10;1.77;;;0.50;;
5022;SDS011;2530;47.990;7.866;2023-05-10T13:19:38;0.60;;;0.40;;
5022;SDS011;2530;47.990;7.866;2023-05-10T13:22:04;1.73;;;0.80;;
5022;SDS011;2530;47.990;7.866;2023-05-10T13:24:30;2.40;;;0.70;;
5022;SDS011;2530;47.990;7.866;2023-05-10T13:26:55;1.05;;;0.50;;
5022;SDS011;2530;47.990;7.866;2023-05-10T13:29:21;3.40;;;0.80;;
5022;SDS011;2530;47.990;7.866;2023-05-10T13:31:47;1.40;;;0.70;;
5022;SDS011;2530;47.990;7.866;2023-05-10T13:34:13;1.60;;;0.70;;
5022;SDS011;2530;47.990;7.866;2023-05-10T13:36:38;1.23;;;0.63;;
5022;SDS011;2530;47.990;7.866;2023-05-10T13:39:04;1.00;;;0.57;;
5022;SDS011;2530;47.990;7.866;2023-05-10T13:41:30;2.65;;;0.88;;
5022;SDS011;2530;47.990;7.866;2023-05-10T13:43:55;0.50;;;0.40;;
5022;SDS011;2530;47.990;7.866;2023-05-10T13:46:21;1.40;;;0.70;;
5022;SDS011;2530;47.990;7.866;2023-05-10T13:48:49;1.60;;;0.60;;
5022;SDS011;2530;47.990;7.866;2023-05-10T13:51:15;0.70;;;0.60;;
5022;SDS011;2530;47.990;7.866;2023-05-10T13:53:40;0.80;;;0.50;;
5022;SDS011;2530;47.990;7.866;2023-05-10T13:56:06;0.70;;;0.50;;
5022;SDS011;2530;47.990;7.866;2023-05-10T13:58:33;1.10;;;0.50;;
5022;SDS011;2530;47.990;7.866;2023-05-10T14:00:58;0.70;;;0.50;;
5022;SDS011;2530;47.990;7.866;2023-05-10T14:03:23;1.20;;;0.57;;
5022;SDS011;2530;47.990;7.866;2023-05-10T14:05:49;0.70;;;0.40;;
5022;SDS011;2530;47.990;7.866;2023-05-10T14:08:15;1.00;;;0.60;;
5022;SDS011;2530;47.990;7.866;2023-05-10T14:10:40;0.80;;;0.60;;
5022;SDS011;2530;47.990;7.866;2023-05-10T14:13:06;1.67;;;0.55;;
5022;SDS011;2530;47.990;7.866;2023-05-10T14:15:32;1.15;;;0.50;;
5022;SDS011;2530;47.990;7.866;2023-05-10T14:17:58;1.90;;;0.70;;
5022;SDS011;2530;47.990;7.866;2023-05-10T14:20:23;1.30;;;0.70;;
5022;SDS011;2530;47.990;7.866;2023-05-10T14:22:49;1.43;;;0.70;;
5022;SDS011;2530;47.990;7.866;2023-05-10T14:25:14;0.70;;;0.50;;
5022;SDS011;2530;47.990;7.866;2023-05-10T14:27:40;0.70;;;0.40;;
5022;SDS011;2530;47.990;7.866;2023-05-10T14:30:05;1.20;;;0.50;;
5022;SDS011;2530;47.990;7.866;2023-05-10T14:32:31;1.40;;;0.40;;
5022;SDS011;2530;47.990;7.866;2023-05-10T14:34:57;0.88;;;0.40;;
5022;SDS011;2530;47.990;7.866;2023-05-10T14:37:23;1.60;;;0.60;;
5022;SDS011;2530;47.990;7.866;2023-05-10T14:39:48;0.80;;;0.60;;
5022;SDS011;2530;47.990;7.866;2023-05-10T14:42:17;0.60;;;0.50;;
5022;SDS011;2530;47.990;7.866;2023-05-10T14:44:42;0.80;;;0.40;;
5022;SDS011;2530;47.990;7.866;2023-05-10T14:47:08;0.73;;;0.50;;
5022;SDS011;2530;47.990;7.866;2023-05-10T14:49:33;2.78;;;0.50;;
5022;SDS011;2530;47.990;7.866;2023-05-10T14:51:59;0.70;;;0.43;;
5022;SDS011;2530;47.990;7.866;2023-05-10T14:54:24;0.50;;;0.40;;
5022;SDS011;2530;47.990;7.866;2023-05-10T14:56:50;0.68;;;0.40;;
5022;SDS011;2530;47.990;7.866;2023-05-10T14:59:16;0.50;;;0.40;;
5022;SDS011;2530;47.990;7.866;2023-05-10T15:01:41;0.53;;;0.40;;
5022;SDS011;2530;47.990;7.866;2023-05-10T15:04:07;0.90;;;0.50;;
5022;SDS011;2530;47.990;7.866;2023-05-10T15:06:34;0.80;;;0.50;;
5022;SDS011;2530;47.990;7.866;2023-05-10T15:09:00;0.80;;;0.52;;
5022;SDS011;2530;47.990;7.866;2023-05-10T15:11:28;0.70;;;0.40;;
5022;SDS011;2530;47.990;7.866;2023-05-10T15:13:54;1.60;;;0.60;;
5022;SDS011;2530;47.990;7.866;2023-05-10T15:16:19;0.60;;;0.40;;
5022;SDS011;2530;47.990;7.866;2023-05-10T15:18:45;0.80;;;0.60;;
5022;SDS011;2530;47.990;7.866;2023-05-10T15:21:11;0.73;;;0.60;;
5022;SDS011;2530;47.990;7.866;2023-05-10T15:23:36;1.20;;;0.60;;
5022;SDS011;2530;47.990;7.866;2023-05-10T15:26:02;0.70;;;0.50;;
5022;SDS011;2530;47.990;7.866;2023-05-10T15:28:27;0.60;;;0.50;;
5022;SDS011;2530;47.990;7.866;2023-05-10T15:30:53;1.50;;;0.50;;
5022;SDS011;2530;47.990;7.866;2023-05-10T15:33:19;0.93;;;0.50;;
5022;SDS011;2530;47.990;7.866;2023-05-10T15:35:44;1.40;;;0.50;;
5022;SDS011;2530;47.990;7.866;2023-05-10T15:38:10;1.37;;;0.50;;
5022;SDS011;2530;47.990;7.866;2023-05-10T15:40:35;0.70;;;0.43;;
5022;SDS011;2530;47.990;7.866;2023-05-10T15:43:01;0.60;;;0.40;;
5022;SDS011;2530;47.990;7.866;2023-05-10T15:45:26;0.90;;;0.50;;
5022;SDS011;2530;47.990;7.866;2023-05-10T15:47:52;0.82;;;0.50;;